sensor_id;sensor_type;location;lat;lon;timestamp;temperature;humidity
24638;DHT22;12773;50.162;8.548;2023-06-10T00:00:09;22.80;95.80
24638;DHT22;12773;50.162;8.548;2023-06-10T00:02:58;22.80;95.60
24638;DHT22;12773;50.162;8.548;2023-06-10T00:05:45;22.80;95.70
24638;DHT22;12773;50.162;8.548;2023-06-10T00:08:33;22.80;95.70
24638;DHT22;12773;50.162;8.548;2023-06-10T00:11:21;22.80;95.70
24638;DHT22;12773;50.162;8.548;2023-06-10T00:14:09;22.70;95.70
24638;DHT22;12773;50.162;8.548;2023-06-10T00:16:57;22.70;95.80
24638;DHT22;12773;50.162;8.548;2023-06-10T00:19:45;22.70;96.00
24638;DHT22;12773;50.162;8.548;2023-06-10T00:22:33;22.60;96.00
24638;DHT22;12773;50.162;8.548;2023-06-10T00:25:21;22.60;96.20
24638;DHT22;12773;50.162;8.548;2023-06-10T00:28:08;22.50;96.00
24638;DHT22;12773;50.162;8.548;2023-06-10T00:30:56;22.50;96.30
24638;DHT22;12773;50.162;8.548;2023-06-10T00:33:44;22.50;96.20
24638;DHT22;12773;50.162;8.548;2023-06-10T00:36:31;22.40;96.20
24638;DHT22;12773;50.162;8.548;2023-06-10T00:39:19;22.40;96.10
24638;DHT22;12773;50.162;8.548;2023-06-10T00:42:07;22.40;96.00
24638;DHT22;12773;50.162;8.548;2023-06-10T00:44:56;22.40;96.10
24638;DHT22;12773;50.162;8.548;2023-06-10T00:47:44;22.40;96.50
24638;DHT22;12773;50.162;8.548;2023-06-10T00:50:32;22.40;96.30
24638;DHT22;12773;50.162;8.548;2023-06-10T00:53:22;22.30;96.10
24638;DHT22;12773;50.162;8.548;2023-06-10T00:56:10;22.30;95.90
24638;DHT22;12773;50.162;8.548;2023-06-10T00:58:58;22.20;95.70
24638;DHT22;12773;50.162;8.548;2023-06-10T01:01:46;22.20;95.60
24638;DHT22;12773;50.162;8.548;2023-06-10T01:04:33;22.20;95.40
24638;DHT22;12773;50.162;8.548;2023-06-10T01:10:23;22.20;96.00
24638;DHT22;12773;50.162;8.548;2023-06-10T01:13:12;22.20;95.00
24638;DHT22;12773;50.162;8.548;2023-06-10T01:16:00;22.20;95.00
24638;DHT22;12773;50.162;8.548;2023-06-10T01:18:48;22.20;95.90
24638;DHT22;12773;50.162;8.548;2023-06-10T01:21:37;22.20;95.60
24638;DHT22;12773;50.162;8.548;2023-06-10T01:24:26;22.10;95.30
24638;DHT22;12773;50.162;8.548;2023-06-10T01:27:15;22.10;96.30
24638;DHT22;12773;50.162;8.548;2023-06-10T01:30:14;22.00;94.80
24638;DHT22;12773;50.162;8.548;2023-06-10T01:32:59;22.00;95.00
24638;DHT22;12773;50.162;8.548;2023-06-10T01:35:48;22.00;94.40
24638;DHT22;12773;50.162;8.548;2023-06-10T01:38:45;22.00;94.30
24638;DHT22;12773;50.162;8.548;2023-06-10T01:41:33;22.00;94.00
24638;DHT22;12773;50.162;8.548;2023-06-10T01:44:22;22.00;93.90
24638;DHT22;12773;50.162;8.548;2023-06-10T01:47:09;22.00;94.10
24638;DHT22;12773;50.162;8.548;2023-06-10T01:49:57;21.90;94.60
24638;DHT22;12773;50.162;8.548;2023-06-10T01:52:45;21.90;94.70
24638;DHT22;12773;50.162;8.548;2023-06-10T01:55:33;21.80;94.60
24638;DHT22;12773;50.162;8.548;2023-06-10T01:58:20;21.70;95.10
24638;DHT22;12773;50.162;8.548;2023-06-10T02:01:09;21.70;94.90
24638;DHT22;12773;50.162;8.548;2023-06-10T02:03:56;21.60;95.50
24638;DHT22;12773;50.162;8.548;2023-06-10T02:06:44;21.50;96.70
24638;DHT22;12773;50.162;8.548;2023-06-10T02:09:31;21.40;96.00
24638;DHT22;12773;50.162;8.548;2023-06-10T02:12:21;21.30;97.90
24638;DHT22;12773;50.162;8.548;2023-06-10T02:15:08;21.20;96.70
24638;DHT22;12773;50.162;8.548;2023-06-10T02:17:56;21.20;96.60
24638;DHT22;12773;50.162;8.548;2023-06-10T02:20:44;21.10;97.00
24638;DHT22;12773;50.162;8.548;2023-06-10T02:23:31;21.00;98.50
24638;DHT22;12773;50.162;8.548;2023-06-10T02:26:19;21.00;98.10
24638;DHT22;12773;50.162;8.548;2023-06-10T02:29:07;21.00;96.00
24638;DHT22;12773;50.162;8.548;2023-06-10T02:31:55;20.90;95.60
24638;DHT22;12773;50.162;8.548;2023-06-10T02:34:43;21.00;96.00
24638;DHT22;12773;50.162;8.548;2023-06-10T02:37:30;21.00;95.70
24638;DHT22;12773;50.162;8.548;2023-06-10T02:40:18;21.00;95.70
24638;DHT22;12773;50.162;8.548;2023-06-10T02:43:06;21.10;95.50
24638;DHT22;12773;50.162;8.548;2023-06-10T02:45:53;21.10;95.00
24638;DHT22;12773;50.162;8.548;2023-06-10T02:48:42;21.10;95.00
24638;DHT22;12773;50.162;8.548;2023-06-10T02:51:30;21.10;95.30
24638;DHT22;12773;50.162;8.548;2023-06-10T02:54:17;21.10;95.90
24638;DHT22;12773;50.162;8.548;2023-06-10T02:57:05;21.10;94.90
24638;DHT22;12773;50.162;8.548;2023-06-10T02:59:53;21.10;95.10
24638;DHT22;12773;50.162;8.548;2023-06-10T03:02:41;21.10;95.30
24638;DHT22;12773;50.162;8.548;2023-06-10T03:05:29;21.00;96.30
24638;DHT22;12773;50.162;8.548;2023-06-10T03:08:16;20.90;96.60
24638;DHT22;12773;50.162;8.548;2023-06-10T03:11:23;20.90;96.80
24638;DHT22;12773;50.162;8.548;2023-06-10T03:14:12;20.90;97.60
24638;DHT22;12773;50.162;8.548;2023-06-10T03:16:59;20.80;98.40
24638;DHT22;12773;50.162;8.548;2023-06-10T03:19:47;20.70;97.90
24638;DHT22;12773;50.162;8.548;2023-06-10T03:22:34;20.70;97.00
24638;DHT22;12773;50.162;8.548;2023-06-10T03:25:22;20.60;97.20
24638;DHT22;12773;50.162;8.548;2023-06-10T03:28:09;20.60;96.80
24638;DHT22;12773;50.162;8.548;2023-06-10T03:30:57;20.60;99.10
24638;DHT22;12773;50.162;8.548;2023-06-10T03:33:44;20.60;97.70
24638;DHT22;12773;50.162;8.548;2023-06-10T03:36:32;20.50;99.20
24638;DHT22;12773;50.162;8.548;2023-06-10T03:39:19;20.50;98.50
24638;DHT22;12773;50.162;8.548;2023-06-10T03:42:07;20.40;98.10
24638;DHT22;12773;50.162;8.548;2023-06-10T03:44:54;20.40;98.30
24638;DHT22;12773;50.162;8.548;2023-06-10T03:47:42;20.40;98.80
24638;DHT22;12773;50.162;8.548;2023-06-10T03:50:31;20.20;99.90
24638;DHT22;12773;50.162;8.548;2023-06-10T03:53:19;20.10;99.90
24638;DHT22;12773;50.162;8.548;2023-06-10T03:56:06;20.10;99.90
24638;DHT22;12773;50.162;8.548;2023-06-10T03:58:55;20.00;99.90
24638;DHT22;12773;50.162;8.548;2023-06-10T04:01:42;19.90;99.90
24638;DHT22;12773;50.162;8.548;2023-06-10T04:04:30;19.90;99.90
24638;DHT22;12773;50.162;8.548;2023-06-10T04:07:18;19.80;99.90
24638;DHT22;12773;50.162;8.548;2023-06-10T04:10:12;19.90;99.90
24638;DHT22;12773;50.162;8.548;2023-06-10T04:12:59;20.00;99.90
24638;DHT22;12773;50.162;8.548;2023-06-10T04:15:46;20.00;99.90
24638;DHT22;12773;50.162;8.548;2023-06-10T04:18:34;20.00;99.90
24638;DHT22;12773;50.162;8.548;2023-06-10T04:21:22;20.00;99.90
24638;DHT22;12773;50.162;8.548;2023-06-10T04:24:09;20.00;99.90
24638;DHT22;12773;50.162;8.548;2023-06-10T04:26:57;20.10;99.90
24638;DHT22;12773;50.162;8.548;2023-06-10T04:29:45;20.20;99.90
24638;DHT22;12773;50.162;8.548;2023-06-10T04:32:32;20.30;99.90
24638;DHT22;12773;50.162;8.548;2023-06-10T04:35:19;20.40;99.90
24638;DHT22;12773;50.162;8.548;2023-06-10T04:38:07;20.50;99.90
24638;DHT22;12773;50.162;8.548;2023-06-10T04:40:54;20.60;99.90
24638;DHT22;12773;50.162;8.548;2023-06-10T04:43:42;20.70;99.90
24638;DHT22;12773;50.162;8.548;2023-06-10T04:46:30;20.70;99.90
24638;DHT22;12773;50.162;8.548;2023-06-10T04:49:18;20.80;99.90
24638;DHT22;12773;50.162;8.548;2023-06-10T04:52:06;21.00;99.90
24638;DHT22;12773;50.162;8.548;2023-06-10T04:54:53;21.00;99.90
24638;DHT22;12773;50.162;8.548;2023-06-10T04:57:41;21.10;99.90
24638;DHT22;12773;50.162;8.548;2023-06-10T05:00:29;21.20;99.90
24638;DHT22;12773;50.162;8.548;2023-06-10T05:03:16;21.20;99.90
24638;DHT22;12773;50.162;8.548;2023-06-10T05:06:04;21.40;99.90
24638;DHT22;12773;50.162;8.548;2023-06-10T05:08:51;21.50;99.90
24638;DHT22;12773;50.162;8.548;2023-06-10T05:11:39;21.60;99.90
24638;DHT22;12773;50.162;8.548;2023-06-10T05:14:26;21.70;99.50
24638;DHT22;12773;50.162;8.548;2023-06-10T05:17:13;21.80;99.90
24638;DHT22;12773;50.162;8.548;2023-06-10T05:20:02;22.00;99.10
24638;DHT22;12773;50.162;8.548;2023-06-10T05:22:50;22.10;98.60
24638;DHT22;12773;50.162;8.548;2023-06-10T05:25:37;22.30;99.20
24638;DHT22;12773;50.162;8.548;2023-06-10T05:28:25;22.40;98.10
24638;DHT22;12773;50.162;8.548;2023-06-10T05:31:12;22.50;97.30
24638;DHT22;12773;50.162;8.548;2023-06-10T05:34:00;22.60;97.00
24638;DHT22;12773;50.162;8.548;2023-06-10T05:36:47;22.70;96.90
24638;DHT22;12773;50.162;8.548;2023-06-10T05:39:37;22.70;97.10
24638;DHT22;12773;50.162;8.548;2023-06-10T05:42:24;22.90;97.00
24638;DHT22;12773;50.162;8.548;2023-06-10T05:45:12;23.00;96.80
24638;DHT22;12773;50.162;8.548;2023-06-10T05:47:59;23.10;97.20
24638;DHT22;12773;50.162;8.548;2023-06-10T05:50:47;23.20;96.80
24638;DHT22;12773;50.162;8.548;2023-06-10T05:53:34;23.20;96.20
24638;DHT22;12773;50.162;8.548;2023-06-10T05:56:22;23.30;96.10
24638;DHT22;12773;50.162;8.548;2023-06-10T05:59:10;23.40;95.70
24638;DHT22;12773;50.162;8.548;2023-06-10T06:01:58;23.50;94.80
24638;DHT22;12773;50.162;8.548;2023-06-10T06:04:45;23.40;95.20
24638;DHT22;12773;50.162;8.548;2023-06-10T06:07:33;23.50;95.20
24638;DHT22;12773;50.162;8.548;2023-06-10T06:10:20;23.50;94.50
24638;DHT22;12773;50.162;8.548;2023-06-10T06:13:07;23.60;94.60
24638;DHT22;12773;50.162;8.548;2023-06-10T06:15:55;23.70;94.50
24638;DHT22;12773;50.162;8.548;2023-06-10T06:18:42;23.70;93.60
24638;DHT22;12773;50.162;8.548;2023-06-10T06:21:30;23.70;93.70
24638;DHT22;12773;50.162;8.548;2023-06-10T06:24:17;23.70;94.10
24638;DHT22;12773;50.162;8.548;2023-06-10T06:27:05;23.80;94.10
24638;DHT22;12773;50.162;8.548;2023-06-10T06:29:52;23.80;94.10
24638;DHT22;12773;50.162;8.548;2023-06-10T06:32:40;23.90;93.30
24638;DHT22;12773;50.162;8.548;2023-06-10T06:35:35;23.90;93.50
24638;DHT22;12773;50.162;8.548;2023-06-10T06:38:18;23.90;93.20
24638;DHT22;12773;50.162;8.548;2023-06-10T06:41:06;23.90;92.80
24638;DHT22;12773;50.162;8.548;2023-06-10T06:43:54;24.00;93.00
24638;DHT22;12773;50.162;8.548;2023-06-10T06:46:42;24.10;93.00
24638;DHT22;12773;50.162;8.548;2023-06-10T06:49:29;24.20;92.50
24638;DHT22;12773;50.162;8.548;2023-06-10T06:52:17;24.30;92.80
24638;DHT22;12773;50.162;8.548;2023-06-10T06:55:05;24.40;92.40
24638;DHT22;12773;50.162;8.548;2023-06-10T06:57:53;24.50;92.20
24638;DHT22;12773;50.162;8.548;2023-06-10T07:00:40;24.60;92.60
24638;DHT22;12773;50.162;8.548;2023-06-10T07:03:28;24.50;92.60
24638;DHT22;12773;50.162;8.548;2023-06-10T07:06:16;24.60;93.10
24638;DHT22;12773;50.162;8.548;2023-06-10T07:09:04;24.60;93.00
24638;DHT22;12773;50.162;8.548;2023-06-10T07:11:52;24.70;92.50
24638;DHT22;12773;50.162;8.548;2023-06-10T07:14:40;24.80;92.60
24638;DHT22;12773;50.162;8.548;2023-06-10T07:17:27;24.80;92.20
24638;DHT22;12773;50.162;8.548;2023-06-10T07:20:15;24.90;93.00
24638;DHT22;12773;50.162;8.548;2023-06-10T07:23:03;25.00;93.30
24638;DHT22;12773;50.162;8.548;2023-06-10T07:25:50;25.20;93.10
24638;DHT22;12773;50.162;8.548;2023-06-10T07:28:38;25.30;92.30
24638;DHT22;12773;50.162;8.548;2023-06-10T07:31:25;25.30;90.80
24638;DHT22;12773;50.162;8.548;2023-06-10T07:34:12;25.30;91.00
24638;DHT22;12773;50.162;8.548;2023-06-10T07:37:00;25.30;90.10
24638;DHT22;12773;50.162;8.548;2023-06-10T07:39:47;25.30;89.10
24638;DHT22;12773;50.162;8.548;2023-06-10T07:42:35;25.30;90.00
24638;DHT22;12773;50.162;8.548;2023-06-10T07:45:23;25.50;90.40
24638;DHT22;12773;50.162;8.548;2023-06-10T07:48:11;25.50;89.80
24638;DHT22;12773;50.162;8.548;2023-06-10T07:50:59;25.60;89.30
24638;DHT22;12773;50.162;8.548;2023-06-10T07:53:46;25.70;89.90
24638;DHT22;12773;50.162;8.548;2023-06-10T07:56:34;25.90;90.00
24638;DHT22;12773;50.162;8.548;2023-06-10T07:59:21;25.90;89.20
24638;DHT22;12773;50.162;8.548;2023-06-10T08:02:09;26.00;89.60
24638;DHT22;12773;50.162;8.548;2023-06-10T08:04:56;26.00;87.10
24638;DHT22;12773;50.162;8.548;2023-06-10T08:07:45;26.00;86.30
24638;DHT22;12773;50.162;8.548;2023-06-10T08:10:33;26.10;86.80
24638;DHT22;12773;50.162;8.548;2023-06-10T08:13:20;26.20;87.80
24638;DHT22;12773;50.162;8.548;2023-06-10T08:16:08;26.30;87.30
24638;DHT22;12773;50.162;8.548;2023-06-10T08:18:56;26.40;86.20
24638;DHT22;12773;50.162;8.548;2023-06-10T08:21:44;26.50;86.80
24638;DHT22;12773;50.162;8.548;2023-06-10T08:24:32;26.60;86.00
24638;DHT22;12773;50.162;8.548;2023-06-10T08:27:20;26.70;85.10
24638;DHT22;12773;50.162;8.548;2023-06-10T08:30:08;26.70;84.10
24638;DHT22;12773;50.162;8.548;2023-06-10T08:32:57;26.80;85.40
24638;DHT22;12773;50.162;8.548;2023-06-10T08:35:45;27.00;86.60
24638;DHT22;12773;50.162;8.548;2023-06-10T08:38:32;26.90;84.40
24638;DHT22;12773;50.162;8.548;2023-06-10T08:41:24;27.00;84.30
24638;DHT22;12773;50.162;8.548;2023-06-10T08:44:21;27.10;84.00
24638;DHT22;12773;50.162;8.548;2023-06-10T08:47:14;27.20;84.10
24638;DHT22;12773;50.162;8.548;2023-06-10T08:50:03;27.20;85.60
24638;DHT22;12773;50.162;8.548;2023-06-10T08:52:53;27.30;84.70
24638;DHT22;12773;50.162;8.548;2023-06-10T08:55:42;27.40;83.20
24638;DHT22;12773;50.162;8.548;2023-06-10T08:58:32;27.50;82.70
24638;DHT22;12773;50.162;8.548;2023-06-10T09:01:25;27.60;82.00
24638;DHT22;12773;50.162;8.548;2023-06-10T09:04:14;27.40;82.20
24638;DHT22;12773;50.162;8.548;2023-06-10T09:07:03;27.30;84.60
24638;DHT22;12773;50.162;8.548;2023-06-10T09:09:51;27.30;85.10
24638;DHT22;12773;50.162;8.548;2023-06-10T09:12:40;27.30;83.40
24638;DHT22;12773;50.162;8.548;2023-06-10T09:15:27;27.50;83.50
24638;DHT22;12773;50.162;8.548;2023-06-10T09:18:15;27.70;84.00
24638;DHT22;12773;50.162;8.548;2023-06-10T09:21:02;27.80;85.50
24638;DHT22;12773;50.162;8.548;2023-06-10T09:24:09;28.10;83.80
24638;DHT22;12773;50.162;8.548;2023-06-10T09:27:02;28.10;82.00
24638;DHT22;12773;50.162;8.548;2023-06-10T09:29:54;27.70;82.60
24638;DHT22;12773;50.162;8.548;2023-06-10T09:32:42;27.80;82.50
24638;DHT22;12773;50.162;8.548;2023-06-10T09:35:30;28.10;84.70
24638;DHT22;12773;50.162;8.548;2023-06-10T09:38:23;28.50;84.00
24638;DHT22;12773;50.162;8.548;2023-06-10T09:41:10;28.70;82.80
24638;DHT22;12773;50.162;8.548;2023-06-10T09:43:59;28.80;79.40
24638;DHT22;12773;50.162;8.548;2023-06-10T09:46:48;28.80;80.00
24638;DHT22;12773;50.162;8.548;2023-06-10T09:49:38;28.80;80.10
24638;DHT22;12773;50.162;8.548;2023-06-10T09:52:27;28.80;79.10
24638;DHT22;12773;50.162;8.548;2023-06-10T09:55:15;28.60;79.60
24638;DHT22;12773;50.162;8.548;2023-06-10T09:58:04;28.70;81.60
24638;DHT22;12773;50.162;8.548;2023-06-10T10:00:53;29.10;83.60
24638;DHT22;12773;50.162;8.548;2023-06-10T10:06:35;29.30;76.20
24638;DHT22;12773;50.162;8.548;2023-06-10T10:09:23;29.20;76.70
24638;DHT22;12773;50.162;8.548;2023-06-10T10:12:15;29.00;77.50
24638;DHT22;12773;50.162;8.548;2023-06-10T10:15:05;29.20;75.70
24638;DHT22;12773;50.162;8.548;2023-06-10T10:20:51;29.80;75.30
24638;DHT22;12773;50.162;8.548;2023-06-10T10:24:02;30.10;77.50
24638;DHT22;12773;50.162;8.548;2023-06-10T10:26:51;30.50;76.00
24638;DHT22;12773;50.162;8.548;2023-06-10T10:29:39;30.40;71.00
24638;DHT22;12773;50.162;8.548;2023-06-10T10:32:37;30.20;71.60
24638;DHT22;12773;50.162;8.548;2023-06-10T10:35:23;30.40;71.10
24638;DHT22;12773;50.162;8.548;2023-06-10T10:38:12;30.30;71.60
24638;DHT22;12773;50.162;8.548;2023-06-10T10:40:59;29.70;69.80
24638;DHT22;12773;50.162;8.548;2023-06-10T10:43:48;29.80;70.60
24638;DHT22;12773;50.162;8.548;2023-06-10T10:46:48;30.20;70.40
24638;DHT22;12773;50.162;8.548;2023-06-10T10:49:34;30.70;70.00
24638;DHT22;12773;50.162;8.548;2023-06-10T10:52:22;31.00;70.60
24638;DHT22;12773;50.162;8.548;2023-06-10T10:55:14;31.00;66.90
24638;DHT22;12773;50.162;8.548;2023-06-10T10:58:07;31.40;75.00
24638;DHT22;12773;50.162;8.548;2023-06-10T11:00:55;32.00;68.40
24638;DHT22;12773;50.162;8.548;2023-06-10T11:03:46;32.00;64.00
24638;DHT22;12773;50.162;8.548;2023-06-10T11:06:34;31.30;63.00
24638;DHT22;12773;50.162;8.548;2023-06-10T11:09:28;31.60;64.30
24638;DHT22;12773;50.162;8.548;2023-06-10T11:12:22;31.60;62.50
24638;DHT22;12773;50.162;8.548;2023-06-10T11:15:06;31.30;63.10
24638;DHT22;12773;50.162;8.548;2023-06-10T11:18:08;31.20;61.90
24638;DHT22;12773;50.162;8.548;2023-06-10T11:20:59;31.30;60.20
24638;DHT22;12773;50.162;8.548;2023-06-10T11:23:46;31.30;59.20
24638;DHT22;12773;50.162;8.548;2023-06-10T11:26:43;31.80;58.10
24638;DHT22;12773;50.162;8.548;2023-06-10T11:29:26;32.00;56.90
24638;DHT22;12773;50.162;8.548;2023-06-10T11:32:14;32.10;56.10
24638;DHT22;12773;50.162;8.548;2023-06-10T11:35:03;32.30;55.80
24638;DHT22;12773;50.162;8.548;2023-06-10T11:37:51;32.40;54.00
24638;DHT22;12773;50.162;8.548;2023-06-10T11:40:39;32.30;54.70
24638;DHT22;12773;50.162;8.548;2023-06-10T11:43:26;32.40;55.60
24638;DHT22;12773;50.162;8.548;2023-06-10T11:46:14;32.30;53.10
24638;DHT22;12773;50.162;8.548;2023-06-10T11:49:03;32.20;52.90
24638;DHT22;12773;50.162;8.548;2023-06-10T11:51:51;32.40;53.80
24638;DHT22;12773;50.162;8.548;2023-06-10T11:54:39;32.80;52.50
24638;DHT22;12773;50.162;8.548;2023-06-10T11:57:26;32.50;51.90
24638;DHT22;12773;50.162;8.548;2023-06-10T12:00:15;32.30;53.00
24638;DHT22;12773;50.162;8.548;2023-06-10T12:03:03;32.00;53.20
24638;DHT22;12773;50.162;8.548;2023-06-10T12:06:03;32.00;53.50
24638;DHT22;12773;50.162;8.548;2023-06-10T12:08:50;31.90;56.70
24638;DHT22;12773;50.162;8.548;2023-06-10T12:11:38;32.00;55.60
24638;DHT22;12773;50.162;8.548;2023-06-10T12:14:54;32.30;55.60
24638;DHT22;12773;50.162;8.548;2023-06-10T12:17:44;33.00;56.20
24638;DHT22;12773;50.162;8.548;2023-06-10T12:20:33;33.10;52.80
24638;DHT22;12773;50.162;8.548;2023-06-10T12:23:23;33.10;56.70
24638;DHT22;12773;50.162;8.548;2023-06-10T12:26:10;33.80;55.10
24638;DHT22;12773;50.162;8.548;2023-06-10T12:28:58;33.80;52.90
24638;DHT22;12773;50.162;8.548;2023-06-10T12:32:03;33.80;55.70
24638;DHT22;12773;50.162;8.548;2023-06-10T12:35:03;34.30;55.40
24638;DHT22;12773;50.162;8.548;2023-06-10T12:38:06;34.50;51.20
24638;DHT22;12773;50.162;8.548;2023-06-10T12:40:52;34.20;50.40
24638;DHT22;12773;50.162;8.548;2023-06-10T12:43:40;34.40;51.50
24638;DHT22;12773;50.162;8.548;2023-06-10T12:46:35;34.20;50.90
24638;DHT22;12773;50.162;8.548;2023-06-10T12:49:20;34.20;51.80
24638;DHT22;12773;50.162;8.548;2023-06-10T12:52:07;34.10;51.60
24638;DHT22;12773;50.162;8.548;2023-06-10T12:54:55;33.90;51.90
24638;DHT22;12773;50.162;8.548;2023-06-10T12:57:50;33.80;50.90
24638;DHT22;12773;50.162;8.548;2023-06-10T13:00:38;33.90;53.20
24638;DHT22;12773;50.162;8.548;2023-06-10T13:03:25;34.10;51.90
24638;DHT22;12773;50.162;8.548;2023-06-10T13:06:13;34.60;50.90
24638;DHT22;12773;50.162;8.548;2023-06-10T13:09:01;34.10;51.40
24638;DHT22;12773;50.162;8.548;2023-06-10T13:11:49;33.50;50.00
24638;DHT22;12773;50.162;8.548;2023-06-10T13:14:37;32.90;51.10
24638;DHT22;12773;50.162;8.548;2023-06-10T13:17:25;32.90;51.60
24638;DHT22;12773;50.162;8.548;2023-06-10T13:20:13;32.80;51.60
24638;DHT22;12773;50.162;8.548;2023-06-10T13:23:00;32.90;51.80
24638;DHT22;12773;50.162;8.548;2023-06-10T13:25:48;32.70;51.90
24638;DHT22;12773;50.162;8.548;2023-06-10T13:28:36;32.60;52.90
24638;DHT22;12773;50.162;8.548;2023-06-10T13:31:24;32.90;51.90
24638;DHT22;12773;50.162;8.548;2023-06-10T13:34:12;33.10;51.30
24638;DHT22;12773;50.162;8.548;2023-06-10T13:37:00;33.00;51.10
24638;DHT22;12773;50.162;8.548;2023-06-10T13:39:47;33.80;53.40
24638;DHT22;12773;50.162;8.548;2023-06-10T13:42:36;34.60;53.10
24638;DHT22;12773;50.162;8.548;2023-06-10T13:45:24;35.10;51.60
24638;DHT22;12773;50.162;8.548;2023-06-10T13:48:12;35.60;52.60
24638;DHT22;12773;50.162;8.548;2023-06-10T13:50:59;35.10;49.30
24638;DHT22;12773;50.162;8.548;2023-06-10T13:53:46;34.00;49.60
24638;DHT22;12773;50.162;8.548;2023-06-10T13:56:34;33.50;51.00
24638;DHT22;12773;50.162;8.548;2023-06-10T13:59:23;33.50;51.60
24638;DHT22;12773;50.162;8.548;2023-06-10T14:02:10;33.70;52.20
24638;DHT22;12773;50.162;8.548;2023-06-10T14:04:58;33.80;51.50
24638;DHT22;12773;50.162;8.548;2023-06-10T14:07:45;33.80;50.80
24638;DHT22;12773;50.162;8.548;2023-06-10T14:10:33;34.10;51.90
24638;DHT22;12773;50.162;8.548;2023-06-10T14:13:21;34.30;51.30
24638;DHT22;12773;50.162;8.548;2023-06-10T14:16:09;34.80;50.50
24638;DHT22;12773;50.162;8.548;2023-06-10T14:18:56;34.70;50.30
24638;DHT22;12773;50.162;8.548;2023-06-10T14:21:44;34.70;50.30
24638;DHT22;12773;50.162;8.548;2023-06-10T14:24:31;35.00;50.90
24638;DHT22;12773;50.162;8.548;2023-06-10T14:27:19;34.70;50.90
24638;DHT22;12773;50.162;8.548;2023-06-10T14:30:07;34.30;49.10
24638;DHT22;12773;50.162;8.548;2023-06-10T14:32:55;34.30;50.40
24638;DHT22;12773;50.162;8.548;2023-06-10T14:35:42;34.40;47.70
24638;DHT22;12773;50.162;8.548;2023-06-10T14:38:30;33.90;48.10
24638;DHT22;12773;50.162;8.548;2023-06-10T14:41:17;34.20;50.00
24638;DHT22;12773;50.162;8.548;2023-06-10T14:44:05;34.80;50.60
24638;DHT22;12773;50.162;8.548;2023-06-10T14:46:52;34.60;49.20
24638;DHT22;12773;50.162;8.548;2023-06-10T14:49:40;34.30;48.40
24638;DHT22;12773;50.162;8.548;2023-06-10T14:52:28;34.00;48.70
24638;DHT22;12773;50.162;8.548;2023-06-10T14:55:16;34.10;48.00
24638;DHT22;12773;50.162;8.548;2023-06-10T14:58:03;34.00;48.40
24638;DHT22;12773;50.162;8.548;2023-06-10T15:00:51;34.30;49.60
24638;DHT22;12773;50.162;8.548;2023-06-10T15:03:38;34.40;48.80
24638;DHT22;12773;50.162;8.548;2023-06-10T15:06:26;33.90;48.40
24638;DHT22;12773;50.162;8.548;2023-06-10T15:09:14;33.80;48.60
24638;DHT22;12773;50.162;8.548;2023-06-10T15:12:02;33.70;48.70
24638;DHT22;12773;50.162;8.548;2023-06-10T15:14:50;34.20;50.00
24638;DHT22;12773;50.162;8.548;2023-06-10T15:17:37;34.30;48.60
24638;DHT22;12773;50.162;8.548;2023-06-10T15:20:28;34.30;48.90
24638;DHT22;12773;50.162;8.548;2023-06-10T15:23:15;34.60;47.80
24638;DHT22;12773;50.162;8.548;2023-06-10T15:26:03;34.50;47.30
24638;DHT22;12773;50.162;8.548;2023-06-10T15:28:50;34.80;48.00
24638;DHT22;12773;50.162;8.548;2023-06-10T15:31:38;35.60;48.90
24638;DHT22;12773;50.162;8.548;2023-06-10T15:34:26;36.00;48.10
24638;DHT22;12773;50.162;8.548;2023-06-10T15:37:14;35.90;46.80
24638;DHT22;12773;50.162;8.548;2023-06-10T15:40:02;36.00;46.80
24638;DHT22;12773;50.162;8.548;2023-06-10T15:42:50;36.00;46.40
24638;DHT22;12773;50.162;8.548;2023-06-10T15:45:38;35.50;46.20
24638;DHT22;12773;50.162;8.548;2023-06-10T15:48:25;35.30;47.10
24638;DHT22;12773;50.162;8.548;2023-06-10T15:51:13;35.40;46.50
24638;DHT22;12773;50.162;8.548;2023-06-10T15:54:00;35.10;48.20
24638;DHT22;12773;50.162;8.548;2023-06-10T15:56:47;35.10;47.40
24638;DHT22;12773;50.162;8.548;2023-06-10T15:59:35;35.30;48.40
24638;DHT22;12773;50.162;8.548;2023-06-10T16:02:22;35.30;46.90
24638;DHT22;12773;50.162;8.548;2023-06-10T16:05:10;35.60;46.90
24638;DHT22;12773;50.162;8.548;2023-06-10T16:07:57;35.30;46.60
24638;DHT22;12773;50.162;8.548;2023-06-10T16:10:46;35.20;47.30
24638;DHT22;12773;50.162;8.548;2023-06-10T16:13:33;34.90;47.20
24638;DHT22;12773;50.162;8.548;2023-06-10T16:16:22;34.70;47.60
24638;DHT22;12773;50.162;8.548;2023-06-10T16:19:10;34.60;47.60
24638;DHT22;12773;50.162;8.548;2023-06-10T16:21:57;34.80;48.00
24638;DHT22;12773;50.162;8.548;2023-06-10T16:24:45;35.00;47.30
24638;DHT22;12773;50.162;8.548;2023-06-10T16:27:33;34.60;47.30
24638;DHT22;12773;50.162;8.548;2023-06-10T16:30:20;34.50;47.40
24638;DHT22;12773;50.162;8.548;2023-06-10T16:33:08;34.50;48.20
24638;DHT22;12773;50.162;8.548;2023-06-10T16:35:56;34.80;47.60
24638;DHT22;12773;50.162;8.548;2023-06-10T16:38:43;34.90;47.60
24638;DHT22;12773;50.162;8.548;2023-06-10T16:41:33;35.00;48.40
24638;DHT22;12773;50.162;8.548;2023-06-10T16:44:21;34.70;47.80
24638;DHT22;12773;50.162;8.548;2023-06-10T16:47:09;34.40;48.20
24638;DHT22;12773;50.162;8.548;2023-06-10T16:49:57;34.30;48.40
24638;DHT22;12773;50.162;8.548;2023-06-10T16:52:44;33.80;48.70
24638;DHT22;12773;50.162;8.548;2023-06-10T16:55:32;33.70;48.80
24638;DHT22;12773;50.162;8.548;2023-06-10T16:58:20;33.40;49.70
24638;DHT22;12773;50.162;8.548;2023-06-10T17:01:08;33.50;48.90
24638;DHT22;12773;50.162;8.548;2023-06-10T17:03:56;33.70;48.90
24638;DHT22;12773;50.162;8.548;2023-06-10T17:06:44;33.90;48.70
24638;DHT22;12773;50.162;8.548;2023-06-10T17:09:31;33.70;49.00
24638;DHT22;12773;50.162;8.548;2023-06-10T17:12:19;33.60;48.80
24638;DHT22;12773;50.162;8.548;2023-06-10T17:15:07;34.10;49.20
24638;DHT22;12773;50.162;8.548;2023-06-10T17:17:55;34.40;48.70
24638;DHT22;12773;50.162;8.548;2023-06-10T17:20:43;34.30;49.10
24638;DHT22;12773;50.162;8.548;2023-06-10T17:23:30;34.40;49.20
24638;DHT22;12773;50.162;8.548;2023-06-10T17:26:18;34.80;49.20
24638;DHT22;12773;50.162;8.548;2023-06-10T17:29:06;34.80;48.60
24638;DHT22;12773;50.162;8.548;2023-06-10T17:31:54;34.60;48.70
24638;DHT22;12773;50.162;8.548;2023-06-10T17:34:41;34.20;49.60
24638;DHT22;12773;50.162;8.548;2023-06-10T17:37:29;34.40;49.80
24638;DHT22;12773;50.162;8.548;2023-06-10T17:40:17;34.40;49.90
24638;DHT22;12773;50.162;8.548;2023-06-10T17:43:04;34.30;49.90
24638;DHT22;12773;50.162;8.548;2023-06-10T17:45:52;34.30;50.30
24638;DHT22;12773;50.162;8.548;2023-06-10T17:48:39;33.80;50.40
24638;DHT22;12773;50.162;8.548;2023-06-10T17:51:27;33.60;51.40